createdAt,value
2019-04-28T00:00:36.815Z,94734.22
2019-04-28T00:03:10.747Z,94733.78
2019-04-28T00:05:42.490Z,94729.76
2019-04-28T00:08:14.279Z,94728.50
2019-04-28T00:10:45.939Z,94730.11
2019-04-28T00:13:17.473Z,94729.56
2019-04-28T00:15:51.607Z,94725.83
2019-04-28T00:18:23.502Z,94724.39
2019-04-28T00:21:29.509Z,94725.59
2019-04-28T00:24:41.488Z,94722.77
2019-04-28T00:27:15.371Z,94728.70
2019-04-28T00:29:47.334Z,94724.52
2019-04-28T00:32:20.839Z,94727.37
2019-04-28T00:34:52.921Z,94729.08
2019-04-28T00:37:37.002Z,94722.34
2019-04-28T00:40:11.088Z,94726.05
2019-04-28T00:42:43.069Z,94726.44
2019-04-28T00:45:15.138Z,94724.45
2019-04-28T00:47:46.598Z,94727.61
2019-04-28T00:50:18.671Z,94725.88
2019-04-28T00:52:51.841Z,94724.81
2019-04-28T00:55:22.639Z,94723.78
2019-04-28T00:57:54.079Z,94719.81
2019-04-28T01:00:27.157Z,94716.88
2019-04-28T01:02:58.679Z,94729.23
2019-04-28T01:05:31.170Z,94726.30
2019-04-28T01:08:03.201Z,94724.18
2019-04-28T01:10:35.032Z,94732.02
2019-04-28T01:13:06.816Z,94727.06
2019-04-28T01:16:01.527Z,94724.71
2019-04-28T01:18:42.943Z,94731.40
2019-04-28T01:21:14.571Z,94730.08
2019-04-28T01:23:46.194Z,94724.33
2019-04-28T01:26:19.829Z,94719.03
2019-04-28T01:28:51.296Z,94721.23
2019-04-28T01:31:41.817Z,94722.61
2019-04-28T01:34:24.368Z,94723.47
2019-04-28T01:36:56.094Z,94721.39
2019-04-28T01:39:29.588Z,94718.13
2019-04-28T01:42:01.132Z,94715.94
2019-04-28T01:44:32.785Z,94717.84
2019-04-28T01:47:04.551Z,94721.91
2019-04-28T01:49:36.138Z,94719.89
2019-04-28T01:52:10.252Z,94718.09
2019-04-28T01:54:41.625Z,94718.73
2019-04-28T01:57:13.285Z,94714.46
2019-04-28T01:59:44.991Z,94708.86
2019-04-28T02:02:16.809Z,94720.48
2019-04-28T02:04:49.916Z,94720.02
2019-04-28T02:07:20.640Z,94715.30
2019-04-28T02:09:52.474Z,94719.97
2019-04-28T02:12:23.854Z,94717.73
2019-04-28T02:14:55.664Z,94724.24
2019-04-28T02:17:27.077Z,94717.16
2019-04-28T02:20:00.658Z,94721.14
2019-04-28T02:22:37.558Z,94716.70
2019-04-28T02:25:10.017Z,94721.44
2019-04-28T02:27:41.701Z,94723.89
2019-04-28T02:30:13.555Z,94723.02
2019-04-28T02:32:45.318Z,94723.61
2019-04-28T02:35:16.889Z,94719.64
2019-04-28T02:37:50.405Z,94725.69
2019-04-28T02:40:20.922Z,94727.88
2019-04-28T02:42:53.013Z,94728.11
2019-04-28T02:45:24.707Z,94727.14
2019-04-28T02:48:00.998Z,94728.80
2019-04-28T02:50:54.967Z,94728.72
2019-04-28T02:53:33.131Z,94731.02
2019-04-28T02:56:02.512Z,94736.86
2019-04-28T02:58:34.258Z,94737.76
2019-04-28T03:01:12.948Z,94735.57
2019-04-28T03:03:40.781Z,94745.69
2019-04-28T03:06:13.875Z,94744.70
2019-04-28T03:08:45.484Z,94745.17
2019-04-28T03:11:16.996Z,94752.12
2019-04-28T03:13:51.118Z,94749.38
2019-04-28T03:16:23.227Z,94752.09
2019-04-28T03:18:55.002Z,94745.81
2019-04-28T03:21:26.817Z,94749.23
2019-04-28T03:24:01.099Z,94755.77
2019-04-28T03:26:41.539Z,94751.73
2019-04-28T03:29:30.740Z,94761.45
2019-04-28T03:32:39.815Z,94765.81
2019-04-28T03:35:02.974Z,94768.11
2019-04-28T03:37:34.429Z,94768.98
2019-04-28T03:40:06.454Z,94767.52
2019-04-28T03:42:40.915Z,94771.60
2019-04-28T03:45:21.441Z,94778.88
2019-04-28T03:47:52.953Z,94775.42
2019-04-28T03:50:24.742Z,94777.75
2019-04-28T03:52:56.774Z,94780.36
2019-04-28T03:55:31.707Z,94787.41
2019-04-28T03:58:02.030Z,94784.69
2019-04-28T04:00:33.544Z,94794.48
2019-04-28T04:03:05.214Z,94797.61
2019-04-28T04:05:36.805Z,94803.80
2019-04-28T04:08:11.009Z,94805.76
2019-04-28T04:10:51.458Z,94814.36
2019-04-28T04:13:41.779Z,94815.95
2019-04-28T04:16:20.965Z,94822.47
2019-04-28T04:18:54.169Z,94815.00
2019-04-28T04:21:24.815Z,94820.52
2019-04-28T04:23:56.303Z,94827.48
2019-04-28T04:26:31.096Z,94824.94
2019-04-28T04:29:01.406Z,94830.38
2019-04-28T04:31:33.368Z,94831.60
2019-04-28T04:34:05.241Z,94832.98
2019-04-28T04:36:37.395Z,94831.35
2019-04-28T04:39:10.854Z,94826.73
2019-04-28T04:41:43.746Z,94830.62
2019-04-28T04:44:15.657Z,94830.50
2019-04-28T04:47:07.561Z,94836.00
2019-04-28T04:49:40.444Z,94836.19
2019-04-28T04:52:12.309Z,94837.97
2019-04-28T04:54:43.846Z,94838.56
2019-04-28T04:57:15.681Z,94835.76
2019-04-28T04:59:50.027Z,94837.50
2019-04-28T05:02:55.378Z,94839.05
2019-04-28T05:05:40.223Z,94838.81
2019-04-28T05:08:15.487Z,94834.45
2019-04-28T05:10:46.818Z,94848.86
2019-04-28T05:13:20.097Z,94850.20
2019-04-28T05:15:52.639Z,94854.67
2019-04-28T05:18:24.184Z,94848.80
2019-04-28T05:20:56.123Z,94844.61
2019-04-28T05:23:44.903Z,94845.33
2019-04-28T05:26:16.858Z,94851.69
2019-04-28T05:28:51.580Z,94847.17
2019-04-28T05:31:24.341Z,94848.42
2019-04-28T05:33:55.694Z,94850.52
2019-04-28T05:36:27.281Z,94848.91
2019-04-28T05:39:00.169Z,94844.69
2019-04-28T05:41:33.090Z,94843.56
2019-04-28T05:44:04.897Z,94850.52
2019-04-28T05:46:36.413Z,94846.05
2019-04-28T05:49:16.786Z,94847.52
2019-04-28T05:51:50.527Z,94845.66
2019-04-28T05:54:43.942Z,94847.17
2019-04-28T05:57:37.512Z,94848.97
2019-04-28T06:00:29.652Z,94849.25
2019-04-28T06:03:02.314Z,94853.88
2019-04-28T06:05:34.105Z,94854.69
2019-04-28T06:08:21.311Z,94851.91
2019-04-28T06:10:54.280Z,94846.22
2019-04-28T06:13:26.020Z,94847.94
2019-04-28T06:15:59.754Z,94851.25
2019-04-28T06:18:31.593Z,94841.69
2019-04-28T06:21:03.195Z,94845.39
2019-04-28T06:23:34.657Z,94843.34
2019-04-28T06:26:06.541Z,94847.01
2019-04-28T06:28:38.293Z,94853.89
2019-04-28T06:31:10.087Z,94854.81
2019-04-28T06:33:44.425Z,94850.73
2019-04-28T06:36:15.359Z,94848.19
2019-04-28T06:38:47.146Z,94855.48
2019-04-28T06:41:18.641Z,94848.13
2019-04-28T06:43:50.274Z,94847.86
2019-04-28T06:46:22.035Z,94849.72
2019-04-28T06:48:53.620Z,94855.39
2019-04-28T06:51:25.585Z,94847.97
2019-04-28T06:53:57.743Z,94845.84
2019-04-28T06:56:29.197Z,94850.38
2019-04-28T06:59:00.696Z,94847.95
2019-04-28T07:01:32.362Z,94842.94
2019-04-28T07:04:04.222Z,94848.26
2019-04-28T07:06:36.240Z,94850.97
2019-04-28T07:09:09.220Z,94847.23
2019-04-28T07:11:40.889Z,94847.27
2019-04-28T07:14:12.379Z,94842.45
2019-04-28T07:16:44.350Z,94856.50
2019-04-28T07:19:16.137Z,94859.38
2019-04-28T07:22:10.963Z,94860.02
2019-04-28T07:24:44.866Z,94855.23
2019-04-28T07:27:17.159Z,94858.95
2019-04-28T07:29:48.901Z,94852.06
2019-04-28T07:32:20.867Z,94852.87
2019-04-28T07:34:52.982Z,94858.76
2019-04-28T07:37:24.724Z,94858.77
2019-04-28T07:39:56.889Z,94843.22
2019-04-28T07:42:28.448Z,94854.38
2019-04-28T07:45:00.029Z,94850.01
2019-04-28T07:47:31.376Z,94850.75
2019-04-28T07:50:02.995Z,94845.95
2019-04-28T07:52:44.783Z,94853.67
2019-04-28T07:55:16.494Z,94841.93
2019-04-28T07:57:48.250Z,94844.12
2019-04-28T08:00:25.549Z,94840.12
2019-04-28T08:02:57.380Z,94847.28
2019-04-28T08:05:29.036Z,94840.05
2019-04-28T08:08:00.920Z,94841.37
2019-04-28T08:10:32.845Z,94842.23
2019-04-28T08:13:04.520Z,94842.11
2019-04-28T08:15:36.475Z,94836.30
2019-04-28T08:18:08.204Z,94842.46
2019-04-28T08:20:40.291Z,94844.50
2019-04-28T08:23:12.408Z,94840.83
2019-04-28T08:25:44.311Z,94849.34
2019-04-28T08:28:16.103Z,94848.98
2019-04-28T08:30:47.766Z,94847.35
2019-04-28T08:33:29.466Z,94851.20
2019-04-28T08:36:01.042Z,94849.92
2019-04-28T08:38:32.684Z,94848.87
2019-04-28T08:41:04.592Z,94850.68
2019-04-28T08:43:36.545Z,94858.52
2019-04-28T08:46:08.438Z,94850.81
2019-04-28T08:48:40.228Z,94849.66
2019-04-28T08:51:11.957Z,94845.73
2019-04-28T08:53:43.894Z,94844.60
2019-04-28T08:56:16.048Z,94845.93
2019-04-28T08:58:47.643Z,94841.55
2019-04-28T09:01:19.295Z,94842.19
2019-04-28T09:03:51.753Z,94834.77
2019-04-28T09:06:23.628Z,94830.42
2019-04-28T09:08:55.234Z,94827.68
2019-04-28T09:11:27.038Z,94835.13
2019-04-28T09:13:58.683Z,94828.81
2019-04-28T09:16:30.420Z,94838.13
2019-04-28T09:19:02.070Z,94839.84
2019-04-28T09:21:34.066Z,94833.00
2019-04-28T09:24:05.995Z,94828.34
2019-04-28T09:26:37.717Z,94837.95
2019-04-28T09:29:09.515Z,94829.22
2019-04-28T09:31:41.316Z,94827.20
2019-04-28T09:34:12.702Z,94818.35
2019-04-28T09:36:44.756Z,94824.34
2019-04-28T09:39:18.080Z,94820.32
2019-04-28T09:42:07.239Z,94819.32
2019-04-28T09:44:38.994Z,94825.71
2019-04-28T09:47:10.665Z,94818.23
2019-04-28T09:49:42.549Z,94812.62
2019-04-28T09:52:14.277Z,94807.86
2019-04-28T09:54:45.788Z,94815.52
2019-04-28T09:57:17.318Z,94814.97
2019-04-28T09:59:48.943Z,94818.48
2019-04-28T10:02:20.694Z,94800.72
2019-04-28T10:04:52.561Z,94800.53
2019-04-28T10:07:24.449Z,94807.30
2019-04-28T10:09:56.498Z,94810.81
2019-04-28T10:12:28.187Z,94805.11
2019-04-28T10:15:00.026Z,94806.30
2019-04-28T10:17:31.916Z,94804.85
2019-04-28T10:20:03.344Z,94795.02
2019-04-28T10:22:35.059Z,94800.69
2019-04-28T10:25:07.535Z,94782.63
2019-04-28T10:27:39.123Z,94789.69
2019-04-28T10:30:11.959Z,94786.85
2019-04-28T10:32:43.852Z,94784.56
2019-04-28T10:35:15.521Z,94782.83
2019-04-28T10:37:47.568Z,94780.28
2019-04-28T10:41:03.650Z,94782.11
2019-04-28T10:43:35.710Z,94784.92
2019-04-28T10:46:07.821Z,94782.19
2019-04-28T10:48:39.978Z,94771.17
2019-04-28T10:51:11.885Z,94774.66
2019-04-28T10:53:43.485Z,94769.56
2019-04-28T10:56:14.985Z,94771.89
2019-04-28T10:58:48.221Z,94766.91
2019-04-28T11:01:19.665Z,94767.34
2019-04-28T11:03:53.298Z,94766.94
2019-04-28T11:06:25.124Z,94763.73
2019-04-28T11:09:15.802Z,94765.05
2019-04-28T11:11:47.521Z,94762.70
2019-04-28T11:14:19.182Z,94758.38
2019-04-28T11:16:50.838Z,94752.88
2019-04-28T11:19:22.530Z,94757.38
2019-04-28T11:21:54.263Z,94753.21
2019-04-28T11:24:25.763Z,94743.16
2019-04-28T11:26:57.966Z,94746.91
2019-04-28T11:29:29.771Z,94737.35
2019-04-28T11:32:01.738Z,94729.88
2019-04-28T11:34:52.146Z,94733.89
2019-04-28T11:37:24.058Z,94722.20
2019-04-28T11:39:55.574Z,94721.92
2019-04-28T11:42:27.116Z,94714.33
2019-04-28T11:44:58.905Z,94708.33
2019-04-28T11:47:30.695Z,94707.12
2019-04-28T11:50:02.536Z,94704.91
2019-04-28T11:52:34.307Z,94706.94
2019-04-28T11:55:06.218Z,94696.49
2019-04-28T11:57:38.803Z,94693.48
2019-04-28T12:00:22.921Z,94689.00
2019-04-28T12:02:54.744Z,94686.22
2019-04-28T12:05:34.796Z,94684.15
2019-04-28T12:08:04.115Z,94671.89
2019-04-28T12:10:40.102Z,94673.09
2019-04-28T12:13:32.053Z,94669.17
2019-04-28T12:16:17.151Z,94660.33
2019-04-28T12:19:12.016Z,94669.30
2019-04-28T12:21:43.954Z,94660.66
2019-04-28T12:24:15.826Z,94662.25
2019-04-28T12:26:47.906Z,94659.77
2019-04-28T12:29:19.665Z,94662.47
2019-04-28T12:31:51.434Z,94649.09
2019-04-28T12:34:23.467Z,94656.59
2019-04-28T12:36:55.504Z,94652.85
2019-04-28T12:39:27.343Z,94652.45
2019-04-28T12:41:59.037Z,94654.85
2019-04-28T12:44:30.850Z,94642.33
2019-04-28T12:47:02.339Z,94642.33
2019-04-28T12:49:46.092Z,94635.67
2019-04-28T12:52:18.661Z,94635.67
2019-04-28T12:54:50.403Z,94633.00
2019-04-28T12:57:22.251Z,94629.11
2019-04-28T13:00:02.823Z,94624.77
2019-04-28T13:03:00.976Z,94619.72
2019-04-28T13:05:35.177Z,94618.93
2019-04-28T13:08:06.774Z,94615.20
2019-04-28T13:10:38.561Z,94609.35
2019-04-28T13:13:10.805Z,94601.75
2019-04-28T13:15:42.670Z,94603.33
2019-04-28T13:18:14.326Z,94603.09
2019-04-28T13:20:46.057Z,94604.83
2019-04-28T13:23:17.725Z,94594.02
2019-04-28T13:25:49.366Z,94593.20
2019-04-28T13:28:22.810Z,94581.70
2019-04-28T13:30:54.534Z,94581.70
2019-04-28T13:33:26.144Z,94592.80
2019-04-28T13:35:58.060Z,94588.89
2019-04-28T13:38:29.592Z,94583.88
2019-04-28T13:41:01.420Z,94587.66
2019-04-28T13:43:33.294Z,94583.41
2019-04-28T13:46:05.148Z,94576.22
2019-04-28T13:48:36.720Z,94582.62
2019-04-28T13:51:08.436Z,94584.92
2019-04-28T13:53:39.809Z,94585.95
2019-04-28T13:56:11.360Z,94574.58
2019-04-28T13:58:46.976Z,94572.53
2019-04-28T14:01:26.781Z,94565.39
2019-04-28T14:04:16.357Z,94569.69
2019-04-28T14:06:51.137Z,94569.38
2019-04-28T14:09:22.926Z,94566.86
2019-04-28T14:11:54.554Z,94558.16
2019-04-28T14:14:26.116Z,94564.63
2019-04-28T14:16:57.775Z,94564.63
2019-04-28T14:19:29.346Z,94563.91
2019-04-28T14:22:01.155Z,94556.18
2019-04-28T14:24:32.774Z,94553.61
2019-04-28T14:27:04.326Z,94556.54
2019-04-28T14:29:35.654Z,94545.98
2019-04-28T14:32:07.222Z,94544.98
2019-04-28T14:34:38.858Z,94544.40
2019-04-28T14:37:10.664Z,94545.81
2019-04-28T14:39:42.647Z,94532.31
2019-04-28T14:42:14.516Z,94542.84
2019-04-28T14:44:46.072Z,94542.38
2019-04-28T14:47:17.677Z,94538.77
2019-04-28T14:49:48.993Z,94537.81
2019-04-28T14:52:20.795Z,94537.81
2019-04-28T14:54:52.535Z,94538.11
2019-04-28T14:57:24.258Z,94534.88
2019-04-28T14:59:58.179Z,94531.59
2019-04-28T15:02:57.613Z,94530.40
2019-04-28T15:06:00.791Z,94531.52
2019-04-28T15:08:51.599Z,94531.52
2019-04-28T15:11:43.261Z,94528.71
2019-04-28T15:14:14.769Z,94532.29
2019-04-28T15:16:46.631Z,94534.05
2019-04-28T15:19:18.530Z,94543.48
2019-04-28T15:21:50.169Z,94543.13
2019-04-28T15:24:21.805Z,94545.25
2019-04-28T15:26:53.466Z,94536.48
2019-04-28T15:29:25.062Z,94535.73
2019-04-28T15:31:56.840Z,94528.91
2019-04-28T15:34:28.758Z,94538.36
2019-04-28T15:37:09.632Z,94535.64
2019-04-28T15:39:34.294Z,94535.32
2019-04-28T15:42:06.097Z,94536.19
2019-04-28T15:44:37.902Z,94534.48
2019-04-28T15:47:09.722Z,94536.66
2019-04-28T15:49:42.571Z,94538.22
2019-04-28T15:52:14.103Z,94540.56
2019-04-28T15:54:45.949Z,94534.81
2019-04-28T15:57:17.468Z,94541.61
2019-04-28T15:59:49.217Z,94540.56
2019-04-28T16:02:21.136Z,94535.10
2019-04-28T16:04:53.035Z,94530.87
2019-04-28T16:07:25.456Z,94526.84
2019-04-28T16:09:57.378Z,94530.89
2019-04-28T16:12:28.760Z,94533.33
2019-04-28T16:15:00.545Z,94527.83
2019-04-28T16:17:32.254Z,94526.08
2019-04-28T16:20:04.132Z,94531.95
2019-04-28T16:22:35.856Z,94526.76
2019-04-28T16:25:07.816Z,94521.14
2019-04-28T16:27:39.539Z,94525.48
2019-04-28T16:30:11.386Z,94523.64
2019-04-28T16:32:43.082Z,94525.23
2019-04-28T16:35:14.820Z,94525.84
2019-04-28T16:37:47.142Z,94520.58
2019-04-28T16:40:19.382Z,94527.00
2019-04-28T16:43:21.942Z,94528.63
2019-04-28T16:45:54.277Z,94537.48
2019-04-28T16:48:26.001Z,94543.92
2019-04-28T16:50:57.872Z,94548.23
2019-04-28T16:53:29.579Z,94548.80
2019-04-28T16:56:18.842Z,94543.56
2019-04-28T16:58:59.279Z,94548.44
2019-04-28T17:01:45.528Z,94542.14
2019-04-28T17:04:17.031Z,94547.50
2019-04-28T17:06:48.975Z,94553.30
2019-04-28T17:09:21.691Z,94548.05
2019-04-28T17:11:53.458Z,94555.37
2019-04-28T17:14:25.267Z,94560.98
2019-04-28T17:16:57.116Z,94569.80
2019-04-28T17:19:29.088Z,94563.80
2019-04-28T17:22:00.634Z,94565.97
2019-04-28T17:24:32.498Z,94566.86
2019-04-28T17:27:04.270Z,94576.41
2019-04-28T17:29:37.899Z,94565.80
2019-04-28T17:32:10.154Z,94575.19
2019-04-28T17:34:41.898Z,94567.81
2019-04-28T17:37:14.431Z,94568.42
2019-04-28T17:39:46.244Z,94567.27
2019-04-28T17:42:19.088Z,94564.14
2019-04-28T17:44:50.988Z,94574.66
2019-04-28T17:47:23.180Z,94579.80
2019-04-28T17:49:55.226Z,94586.29
2019-04-28T17:52:27.181Z,94594.64
2019-04-28T17:54:58.999Z,94593.18
2019-04-28T17:57:30.842Z,94599.95
2019-04-28T18:00:04.822Z,94595.76
2019-04-28T18:02:55.972Z,94603.53
2019-04-28T18:05:32.949Z,94608.09
2019-04-28T18:08:05.635Z,94607.85
2019-04-28T18:10:38.056Z,94615.07
2019-04-28T18:13:10.175Z,94612.94
2019-04-28T18:16:06.809Z,94598.03
2019-04-28T18:18:42.125Z,94607.91
2019-04-28T18:21:15.168Z,94610.80
2019-04-28T18:23:47.168Z,94604.67
2019-04-28T18:26:18.794Z,94610.28
2019-04-28T18:28:51.446Z,94605.73
2019-04-28T18:31:53.002Z,94609.77
2019-04-28T18:34:52.933Z,94612.41
2019-04-28T18:37:46.599Z,94617.42
2019-04-28T18:40:43.426Z,94628.28
2019-04-28T18:43:40.077Z,94626.34
2019-04-28T18:46:11.726Z,94642.57
2019-04-28T18:48:43.441Z,94643.05
2019-04-28T18:51:15.210Z,94646.36
2019-04-28T18:53:46.892Z,94642.00
2019-04-28T18:56:18.469Z,94645.44
2019-04-28T18:58:50.332Z,94644.36
2019-04-28T19:01:43.773Z,94647.30
2019-04-28T19:04:15.868Z,94649.11
2019-04-28T19:06:47.350Z,94646.89
2019-04-28T19:09:32.409Z,94646.04
2019-04-28T19:12:26.572Z,94654.78
2019-04-28T19:15:16.035Z,94658.97
2019-04-28T19:18:02.105Z,94658.17
2019-04-28T19:20:34.480Z,94663.70
2019-04-28T19:23:06.420Z,94656.84
2019-04-28T19:25:38.150Z,94652.39
2019-04-28T19:28:10.206Z,94658.30
2019-04-28T19:30:42.119Z,94652.91
2019-04-28T19:33:14.317Z,94651.00
2019-04-28T19:35:45.957Z,94652.22
2019-04-28T19:38:17.783Z,94647.17
2019-04-28T19:40:49.570Z,94646.97
2019-04-28T19:43:21.657Z,94650.42
2019-04-28T19:45:55.133Z,94644.41
2019-04-28T19:48:26.873Z,94644.06
2019-04-28T19:50:58.674Z,94647.16
2019-04-28T19:53:31.966Z,94654.52
2019-04-28T19:56:10.187Z,94651.20
2019-04-28T19:58:49.809Z,94650.48
2019-04-28T20:01:26.936Z,94652.86
2019-04-28T20:04:00.080Z,94649.70
2019-04-28T20:06:31.950Z,94645.14
2019-04-28T20:09:03.852Z,94654.34
2019-04-28T20:11:37.157Z,94652.67
2019-04-28T20:14:08.713Z,94643.63
2019-04-28T20:16:40.455Z,94648.36
2019-04-28T20:19:12.153Z,94655.67
2019-04-28T20:21:43.921Z,94649.31
2019-04-28T20:24:15.602Z,94651.25
2019-04-28T20:26:47.358Z,94651.25
2019-04-28T20:29:19.650Z,94658.23
2019-04-28T20:31:51.332Z,94648.53
2019-04-28T20:34:23.137Z,94649.54
2019-04-28T20:37:24.034Z,94653.14
2019-04-28T20:40:00.003Z,94649.41
2019-04-28T20:43:02.006Z,94653.59
2019-04-28T20:45:33.683Z,94649.34
2019-04-28T20:48:06.095Z,94650.84
2019-04-28T20:50:38.047Z,94639.08
2019-04-28T20:53:10.013Z,94646.89
2019-04-28T20:55:41.652Z,94656.38
2019-04-28T20:58:13.272Z,94660.92
2019-04-28T21:00:45.479Z,94657.49
2019-04-28T21:03:17.246Z,94653.59
2019-04-28T21:05:49.040Z,94658.78
2019-04-28T21:08:20.712Z,94653.37
2019-04-28T21:10:52.460Z,94652.44
2019-04-28T21:13:24.192Z,94651.69
2019-04-28T21:15:56.320Z,94652.05
2019-04-28T21:18:28.014Z,94653.16
2019-04-28T21:20:59.658Z,94652.27
2019-04-28T21:23:31.345Z,94647.49
2019-04-28T21:26:03.344Z,94648.77
2019-04-28T21:28:35.235Z,94651.28
2019-04-28T21:31:07.295Z,94653.80
2019-04-28T21:33:39.038Z,94651.70
2019-04-28T21:36:10.575Z,94654.22
2019-04-28T21:38:43.452Z,94651.23
2019-04-28T21:41:15.660Z,94649.10
2019-04-28T21:43:53.426Z,94653.07
2019-04-28T21:46:48.375Z,94654.97
2019-04-28T21:49:28.154Z,94654.59
2019-04-28T21:51:59.823Z,94646.53
2019-04-28T21:54:31.689Z,94650.83
2019-04-28T21:57:03.225Z,94650.70
2019-04-28T21:59:34.879Z,94651.28
2019-04-28T22:02:06.647Z,94657.25
2019-04-28T22:04:39.171Z,94661.20
2019-04-28T22:07:13.811Z,94654.17
2019-04-28T22:09:45.803Z,94654.88
2019-04-28T22:12:19.168Z,94654.97
2019-04-28T22:14:51.129Z,94653.55
2019-04-28T22:17:22.620Z,94647.34
2019-04-28T22:19:54.132Z,94648.45
2019-04-28T22:22:25.816Z,94643.95
2019-04-28T22:25:03.109Z,94638.27
2019-04-28T22:27:41.770Z,94652.41
2019-04-28T22:30:14.144Z,94642.05
2019-04-28T22:32:45.897Z,94648.81
2019-04-28T22:35:20.628Z,94648.80
2019-04-28T22:37:52.598Z,94647.38
2019-04-28T22:40:24.019Z,94647.55
2019-04-28T22:42:55.803Z,94647.85
2019-04-28T22:45:27.403Z,94649.22
2019-04-28T22:47:59.204Z,94649.42
2019-04-28T22:50:42.567Z,94642.28
2019-04-28T22:53:15.934Z,94643.00
2019-04-28T22:55:56.259Z,94640.05
2019-04-28T22:58:53.709Z,94640.95
2019-04-28T23:01:38.388Z,94635.47
2019-04-28T23:04:26.543Z,94627.37
2019-04-28T23:06:58.365Z,94630.55
2019-04-28T23:09:30.357Z,94627.61
2019-04-28T23:12:02.134Z,94626.19
2019-04-28T23:14:33.710Z,94621.94
2019-04-28T23:17:07.320Z,94617.55
2019-04-28T23:19:40.990Z,94625.08
2019-04-28T23:22:28.596Z,94627.89
2019-04-28T23:25:00.484Z,94628.98
2019-04-28T23:27:32.107Z,94628.88
2019-04-28T23:30:03.814Z,94631.70
2019-04-28T23:32:35.306Z,94632.38
2019-04-28T23:35:07.137Z,94631.36
2019-04-28T23:37:38.852Z,94627.66
2019-04-28T23:40:10.881Z,94627.61
2019-04-28T23:42:52.258Z,94616.86
2019-04-28T23:45:23.823Z,94623.70
2019-04-28T23:47:55.509Z,94616.79
2019-04-28T23:50:35.235Z,94610.11
2019-04-28T23:53:10.384Z,94612.53
2019-04-28T23:55:42.009Z,94617.33
2019-04-28T23:58:13.748Z,94611.00
